Terminal Aerodrome Forecast
Issued by NWS Dallas/Fort Worth, TX

Home | Current Version | Previous Version | Text Only | Print | Product List | Glossary On
Versions: 1 2 3 4 5 6 7 8 9 10 11 12 13 14 15 16 17 18 19 20 21 22 23 24 25 26 27 28 29
427
FTUS44 KFWD 071739
TAFACT
TAF
KACT 071739Z 0718/0818 15005KT P6SM BKN020
     FM072200 14005KT P6SM BKN035
     FM080200 35011KT P6SM BKN025
     FM080400 36016G26KT 5SM -DZ BKN015=

USA.gov is the U.S. government's official web portal to all federal, state and local government web resources and services.